createdAt,value
2023-04-06T00:02:45.697Z,3.13
2023-04-06T00:05:48.863Z,3.20
2023-04-06T00:08:50.979Z,3.23
2023-04-06T00:11:52.943Z,3.97
2023-04-06T00:14:55.680Z,4.13
2023-04-06T00:17:57.859Z,3.83
2023-04-06T00:21:00.899Z,3.87
2023-04-06T00:24:02.901Z,4.57
2023-04-06T00:27:04.984Z,3.60
2023-04-06T00:30:11.820Z,4.23
2023-04-06T00:33:14.622Z,3.70
2023-04-06T00:36:16.661Z,3.93
2023-04-06T00:39:20.497Z,4.27
2023-04-06T00:42:27.301Z,4.87
2023-04-06T00:45:29.728Z,4.10
2023-04-06T00:48:32.605Z,4.70
2023-04-06T00:51:35.021Z,3.77
2023-04-06T00:54:36.940Z,3.70
2023-04-06T00:57:39.605Z,3.80
2023-04-06T01:00:41.676Z,3.60
2023-04-06T01:03:46.193Z,3.57
2023-04-06T01:06:48.158Z,3.10
2023-04-06T01:09:50.090Z,3.27
2023-04-06T01:12:52.560Z,3.60
2023-04-06T01:15:55.638Z,3.73
2023-04-06T01:18:57.639Z,3.43
2023-04-06T01:21:59.648Z,3.47
2023-04-06T01:25:01.610Z,3.40
2023-04-06T01:28:03.755Z,3.17
2023-04-06T01:31:08.441Z,3.13
2023-04-06T01:34:11.239Z,3.40
2023-04-06T01:37:13.706Z,3.47
2023-04-06T01:40:16.132Z,3.33
2023-04-06T01:43:18.097Z,3.57
2023-04-06T01:46:20.089Z,3.67
2023-04-06T01:49:22.133Z,3.43
2023-04-06T01:52:24.373Z,3.70
2023-04-06T01:55:26.478Z,3.50
2023-04-06T01:58:28.713Z,2.87
2023-04-06T02:01:31.288Z,3.47
2023-04-06T02:04:33.658Z,3.47
2023-04-06T02:07:35.940Z,3.60
2023-04-06T02:10:37.945Z,3.80
2023-04-06T02:13:39.939Z,3.53
2023-04-06T02:16:42.507Z,3.33
2023-04-06T02:19:44.438Z,3.27
2023-04-06T02:22:46.444Z,3.63
2023-04-06T02:25:48.427Z,3.40
2023-04-06T02:28:50.566Z,3.83
2023-04-06T02:31:53.036Z,3.20
2023-04-06T02:34:55.066Z,3.77
2023-04-06T02:37:56.937Z,3.53
2023-04-06T02:40:59.397Z,3.83
2023-04-06T02:44:01.488Z,3.43
2023-04-06T02:47:03.547Z,3.97
2023-04-06T02:50:06.360Z,3.10
2023-04-06T02:53:09.211Z,3.70
2023-04-06T02:56:11.917Z,3.53
2023-04-06T02:59:14.651Z,3.40
2023-04-06T03:02:16.688Z,3.47
2023-04-06T03:05:19.331Z,3.73
2023-04-06T03:08:21.509Z,3.77
2023-04-06T03:11:23.446Z,3.57
2023-04-06T03:14:25.655Z,3.33
2023-04-06T03:17:27.623Z,3.40
2023-04-06T03:20:29.601Z,3.20
2023-04-06T03:23:31.757Z,4.33
2023-04-06T03:26:33.773Z,3.90
2023-04-06T03:29:39.391Z,4.03
2023-04-06T03:32:41.420Z,3.90
2023-04-06T03:35:43.741Z,3.43
2023-04-06T03:38:45.821Z,3.73
2023-04-06T03:41:47.821Z,3.43
2023-04-06T03:44:49.676Z,4.13
2023-04-06T03:47:52.416Z,4.30
2023-04-06T03:56:04.654Z,3.63
2023-04-06T03:59:28.474Z,3.40
2023-04-06T04:02:50.889Z,3.83
2023-04-06T04:05:53.201Z,4.47
2023-04-06T04:08:55.200Z,3.87
2023-04-06T04:11:57.261Z,4.43
2023-04-06T04:14:59.277Z,3.53
2023-04-06T04:18:01.192Z,4.30
2023-04-06T04:30:21.608Z,3.77
2023-04-06T04:33:24.093Z,3.60
2023-04-06T04:37:30.667Z,3.60
2023-04-06T04:40:32.714Z,4.07
2023-04-06T04:43:34.842Z,4.17
2023-04-06T04:46:36.775Z,4.10
2023-04-06T04:49:39.655Z,4.20
2023-04-06T04:52:41.682Z,4.33
2023-04-06T04:55:43.705Z,4.13
2023-04-06T04:58:45.708Z,4.17
2023-04-06T05:01:54.894Z,3.87
2023-04-06T05:04:57.722Z,4.20
2023-04-06T05:07:59.983Z,3.93
2023-04-06T05:11:01.967Z,3.80
2023-04-06T05:14:04.555Z,4.53
2023-04-06T05:17:16.238Z,4.33
2023-04-06T05:20:53.643Z,3.97
2023-04-06T05:23:55.775Z,3.97
2023-04-06T05:28:18.399Z,4.27
2023-04-06T05:31:20.777Z,3.90
2023-04-06T05:34:23.155Z,4.37
2023-04-06T05:37:25.055Z,4.43
2023-04-06T05:45:52.364Z,3.90
2023-04-06T05:50:00.990Z,3.70
2023-04-06T05:58:19.209Z,3.70
2023-04-06T06:01:21.311Z,4.13
2023-04-06T06:04:23.286Z,4.23
2023-04-06T06:07:25.266Z,4.20
2023-04-06T06:10:27.562Z,4.40
2023-04-06T06:13:29.512Z,4.77
2023-04-06T06:16:31.549Z,4.70
2023-04-06T06:19:33.621Z,4.70
2023-04-06T06:22:36.550Z,4.33
2023-04-06T06:25:38.438Z,4.10
2023-04-06T06:28:40.529Z,3.77
2023-04-06T06:31:42.483Z,4.00
2023-04-06T06:34:45.048Z,4.53
2023-04-06T06:37:46.941Z,5.03
2023-04-06T06:40:49.012Z,4.30
2023-04-06T06:43:50.951Z,4.67
2023-04-06T06:46:53.165Z,4.73
2023-04-06T06:49:57.948Z,4.37
2023-04-06T06:53:00.131Z,4.87
2023-04-06T06:56:02.805Z,4.30
2023-04-06T06:59:05.365Z,4.40
2023-04-06T07:02:07.499Z,4.10
2023-04-06T07:05:19.857Z,4.43
2023-04-06T07:08:28.842Z,4.50
2023-04-06T07:11:32.178Z,4.87
2023-04-06T07:14:34.307Z,4.47
2023-04-06T07:17:36.528Z,3.93
2023-04-06T07:20:38.530Z,4.00
2023-04-06T07:23:40.597Z,4.17
2023-04-06T07:26:44.006Z,3.50
2023-04-06T07:29:47.924Z,3.97
2023-04-06T07:32:50.387Z,4.30
2023-04-06T07:35:53.711Z,3.90
2023-04-06T07:38:55.771Z,4.67
2023-04-06T07:41:59.476Z,4.37
2023-04-06T07:45:01.476Z,3.97
2023-04-06T07:48:03.604Z,4.17
2023-04-06T07:51:06.273Z,4.50
2023-04-06T07:54:08.721Z,4.07
2023-04-06T07:57:10.981Z,4.30
2023-04-06T08:00:14.399Z,4.60
2023-04-06T08:03:18.019Z,4.27
2023-04-06T08:06:20.344Z,4.50
2023-04-06T08:09:22.220Z,4.10
2023-04-06T08:12:24.231Z,4.97
2023-04-06T08:15:26.643Z,4.30
2023-04-06T08:18:29.843Z,5.37
2023-04-06T08:21:31.867Z,4.50
2023-04-06T08:24:33.826Z,4.40
2023-04-06T08:27:35.758Z,4.87
2023-04-06T08:30:38.824Z,4.90
2023-04-06T08:33:40.989Z,4.43
2023-04-06T08:36:43.296Z,4.50
2023-04-06T08:39:51.823Z,4.67
2023-04-06T08:42:56.926Z,4.50
2023-04-06T08:46:00.606Z,4.70
2023-04-06T08:49:04.570Z,4.67
2023-04-06T08:52:10.468Z,5.10
2023-04-06T08:55:12.566Z,4.57
2023-04-06T08:58:21.520Z,4.53
2023-04-06T09:01:36.200Z,4.87
2023-04-06T09:04:38.497Z,4.53
2023-04-06T09:07:41.512Z,5.17
2023-04-06T09:10:43.647Z,5.00
2023-04-06T09:13:54.052Z,5.53
2023-04-06T09:16:56.518Z,4.80
2023-04-06T09:19:59.143Z,4.63
2023-04-06T09:23:03.674Z,4.57
2023-04-06T09:26:14.829Z,5.07
2023-04-06T09:29:29.045Z,4.07
2023-04-06T09:32:31.108Z,5.13
2023-04-06T09:35:34.235Z,5.17
2023-04-06T09:38:37.795Z,4.53
2023-04-06T09:41:40.668Z,4.40
2023-04-06T09:44:43.005Z,4.70
2023-04-06T09:47:46.456Z,4.80
2023-04-06T09:50:51.712Z,4.90
2023-04-06T09:53:55.195Z,4.90
2023-04-06T09:57:16.253Z,4.70
2023-04-06T10:00:22.301Z,5.10
2023-04-06T10:03:30.713Z,5.23
2023-04-06T10:06:36.493Z,5.00
2023-04-06T10:09:39.019Z,5.10
2023-04-06T10:12:41.299Z,5.03
2023-04-06T10:15:43.616Z,4.80
2023-04-06T10:18:48.911Z,5.53
2023-04-06T10:21:52.832Z,4.30
2023-04-06T10:24:54.908Z,5.40
2023-04-06T10:28:10.693Z,5.10
2023-04-06T10:31:12.772Z,4.20
2023-04-06T10:34:16.107Z,4.83
2023-04-06T10:37:20.289Z,4.57
2023-04-06T10:40:27.327Z,5.50
2023-04-06T10:43:36.827Z,5.10
2023-04-06T10:46:38.996Z,4.80
2023-04-06T10:49:41.089Z,5.57
2023-04-06T10:52:44.039Z,4.67
2023-04-06T10:55:46.684Z,5.10
2023-04-06T10:58:53.805Z,5.17
2023-04-06T11:01:57.163Z,4.67
2023-04-06T11:05:00.500Z,5.23
2023-04-06T11:08:02.671Z,5.50
2023-04-06T11:11:10.579Z,5.80
2023-04-06T11:14:12.629Z,5.73
2023-04-06T11:17:14.938Z,5.17
2023-04-06T11:20:17.054Z,5.77
2023-04-06T11:23:26.837Z,4.80
2023-04-06T11:26:29.035Z,4.73
2023-04-06T11:29:32.197Z,5.50
2023-04-06T11:32:43.113Z,5.07
2023-04-06T11:35:45.575Z,5.80
2023-04-06T11:38:47.506Z,5.17
2023-04-06T11:41:53.769Z,5.40
2023-04-06T11:44:57.378Z,5.27
2023-04-06T11:48:02.760Z,5.60
2023-04-06T11:51:06.424Z,5.17
2023-04-06T11:54:08.920Z,6.20
2023-04-06T11:57:11.090Z,5.90
2023-04-06T12:00:14.958Z,5.03
2023-04-06T12:03:17.164Z,5.20
2023-04-06T12:06:20.182Z,4.97
2023-04-06T12:09:22.289Z,5.17
2023-04-06T12:12:24.554Z,6.20
2023-04-06T12:15:26.562Z,5.00
2023-04-06T12:18:29.051Z,5.10
2023-04-06T12:21:32.365Z,6.13
2023-04-06T12:24:34.479Z,5.67
2023-04-06T12:27:36.812Z,5.50
2023-04-06T12:30:39.197Z,4.77
2023-04-06T12:33:41.557Z,5.20
2023-04-06T12:36:43.908Z,4.10
2023-04-06T12:39:46.145Z,4.50
2023-04-06T12:42:48.365Z,4.43
2023-04-06T12:45:51.092Z,4.80
2023-04-06T12:48:57.498Z,4.37
2023-04-06T12:52:01.235Z,4.43
2023-04-06T12:55:04.530Z,4.60
2023-04-06T12:58:06.526Z,4.40
2023-04-06T13:01:09.850Z,5.13
2023-04-06T13:04:12.186Z,4.00
2023-04-06T13:07:15.286Z,4.73
2023-04-06T13:10:17.298Z,4.60
2023-04-06T13:13:23.886Z,4.33
2023-04-06T13:16:26.277Z,4.60
2023-04-06T13:19:28.369Z,4.23
2023-04-06T13:22:30.427Z,4.17
2023-04-06T13:25:34.231Z,4.70
2023-04-06T13:28:39.030Z,4.13
2023-04-06T13:31:41.490Z,4.80
2023-04-06T13:34:46.145Z,5.20
2023-04-06T13:37:48.284Z,5.33
2023-04-06T13:40:50.989Z,4.97
2023-04-06T13:43:53.527Z,5.10
2023-04-06T13:46:55.803Z,4.73
2023-04-06T13:49:58.241Z,5.60
2023-04-06T13:53:00.134Z,4.83
2023-04-06T13:56:02.141Z,5.33
2023-04-06T13:59:04.608Z,5.20
2023-04-06T14:02:08.630Z,5.43
2023-04-06T14:05:12.185Z,5.07
2023-04-06T14:08:14.782Z,5.23
2023-04-06T14:11:17.401Z,5.63
2023-04-06T14:14:19.710Z,5.47
2023-04-06T14:17:21.901Z,5.47
2023-04-06T14:20:24.062Z,6.23
2023-04-06T14:23:29.427Z,6.10
2023-04-06T14:26:31.419Z,5.33
2023-04-06T14:29:33.318Z,5.07
2023-04-06T14:32:35.820Z,5.43
2023-04-06T14:35:40.305Z,4.87
2023-04-06T14:38:42.755Z,4.63
2023-04-06T14:41:44.684Z,4.70
2023-04-06T14:44:47.501Z,5.33
2023-04-06T14:47:49.461Z,5.20
2023-04-06T14:50:56.509Z,4.97
2023-04-06T14:53:58.502Z,5.63
2023-04-06T14:57:01.816Z,5.50
2023-04-06T15:00:04.659Z,5.00
2023-04-06T15:03:07.194Z,5.30
2023-04-06T15:06:16.722Z,4.83
2023-04-06T15:09:19.471Z,5.30
2023-04-06T15:12:21.419Z,5.10
2023-04-06T15:15:23.641Z,5.10
2023-04-06T15:18:25.672Z,5.73
2023-04-06T15:21:28.535Z,5.17
2023-04-06T15:24:30.682Z,5.27
2023-04-06T15:27:32.731Z,5.10
2023-04-06T15:30:34.682Z,5.50
2023-04-06T15:33:36.735Z,5.17
2023-04-06T15:36:38.713Z,5.23
2023-04-06T15:39:40.763Z,5.83
2023-04-06T15:42:44.263Z,5.17
2023-04-06T15:45:46.259Z,5.03
2023-04-06T15:48:48.733Z,5.67
2023-04-06T15:51:52.586Z,5.37
2023-04-06T15:54:54.851Z,4.70
2023-04-06T15:57:56.871Z,5.50
2023-04-06T16:00:58.816Z,5.47
2023-04-06T16:04:01.644Z,5.70
2023-04-06T16:07:03.916Z,5.47
2023-04-06T16:10:06.682Z,5.10
2023-04-06T16:13:09.896Z,5.23
2023-04-06T16:16:11.959Z,5.17
2023-04-06T16:19:13.878Z,5.20
2023-04-06T16:22:16.504Z,5.37
2023-04-06T16:25:18.404Z,5.47
2023-04-06T16:28:22.188Z,5.73
2023-04-06T16:31:26.036Z,6.63
2023-04-06T16:34:34.981Z,5.73
2023-04-06T16:37:36.880Z,5.07
2023-04-06T16:40:39.736Z,6.00
2023-04-06T16:43:42.358Z,5.77
2023-04-06T16:46:44.645Z,5.50
2023-04-06T16:49:46.787Z,5.50
2023-04-06T16:52:49.341Z,5.60
2023-04-06T16:55:51.402Z,5.17
2023-04-06T16:58:53.395Z,5.60
2023-04-06T17:01:55.808Z,6.80
2023-04-06T17:04:58.305Z,5.27
2023-04-06T17:08:00.508Z,4.60
2023-04-06T17:11:04.476Z,4.53
2023-04-06T17:14:08.562Z,5.43
2023-04-06T17:17:10.751Z,4.80
2023-04-06T17:20:13.442Z,5.43
2023-04-06T17:23:15.831Z,4.80
2023-04-06T17:26:17.919Z,4.90
2023-04-06T17:29:20.496Z,4.70
2023-04-06T17:32:23.229Z,4.93
2023-04-06T17:35:25.875Z,5.13
2023-04-06T17:38:27.789Z,4.67
2023-04-06T17:41:32.920Z,4.33
2023-04-06T17:44:34.900Z,4.13
2023-04-06T17:47:37.300Z,4.57
2023-04-06T17:50:39.439Z,4.97
2023-04-06T17:53:42.195Z,4.33
2023-04-06T17:56:44.690Z,3.67
2023-04-06T17:59:46.859Z,3.90
2023-04-06T18:02:48.925Z,3.87
2023-04-06T18:05:51.988Z,3.77
2023-04-06T18:08:55.301Z,4.07
2023-04-06T18:11:58.263Z,4.17
2023-04-06T18:15:00.628Z,4.30
2023-04-06T18:18:02.788Z,4.73
2023-04-06T18:21:08.379Z,4.30
2023-04-06T18:24:15.158Z,3.90
2023-04-06T18:27:25.591Z,4.37
2023-04-06T18:30:27.977Z,4.30
2023-04-06T18:33:33.067Z,3.67
2023-04-06T18:36:35.124Z,4.13
2023-04-06T18:39:37.510Z,4.43
2023-04-06T18:42:40.174Z,3.77
2023-04-06T18:45:45.575Z,4.20
2023-04-06T18:48:47.783Z,4.37
2023-04-06T18:51:49.755Z,4.33
2023-04-06T18:54:53.494Z,4.80
2023-04-06T18:57:55.823Z,4.33
2023-04-06T19:00:57.769Z,5.10
2023-04-06T19:04:00.671Z,4.50
2023-04-06T19:07:03.025Z,4.37
2023-04-06T19:10:06.861Z,4.30
2023-04-06T19:13:09.897Z,4.73
2023-04-06T19:16:12.706Z,4.27
2023-04-06T19:19:15.804Z,4.30
2023-04-06T19:22:18.191Z,5.23
2023-04-06T19:25:20.511Z,4.47
2023-04-06T19:28:23.151Z,4.87
2023-04-06T19:31:27.459Z,4.43
2023-04-06T19:34:30.008Z,5.23
2023-04-06T19:37:39.447Z,4.80
2023-04-06T19:40:42.994Z,5.00
2023-04-06T19:43:45.010Z,5.27
2023-04-06T19:46:47.094Z,4.97
2023-04-06T19:49:49.249Z,4.50
2023-04-06T19:52:53.433Z,5.10
2023-04-06T19:55:55.486Z,4.67
2023-04-06T19:58:58.490Z,5.13
2023-04-06T20:02:01.071Z,4.77
2023-04-06T20:05:03.127Z,5.07
2023-04-06T20:08:05.192Z,5.30
2023-04-06T20:11:10.139Z,5.97
2023-04-06T20:14:13.177Z,6.53
2023-04-06T20:17:15.108Z,5.50
2023-04-06T20:20:17.052Z,5.10
2023-04-06T20:23:19.426Z,5.00
2023-04-06T20:26:29.047Z,5.43
2023-04-06T20:29:32.901Z,5.40
2023-04-06T20:32:35.387Z,5.10
2023-04-06T20:35:37.621Z,4.93
2023-04-06T20:38:40.737Z,4.73
2023-04-06T20:41:44.337Z,5.73
2023-04-06T20:44:47.423Z,5.43
2023-04-06T20:47:57.380Z,5.20
2023-04-06T20:51:00.286Z,6.53
2023-04-06T20:54:02.844Z,5.87
2023-04-06T20:57:04.976Z,6.30
2023-04-06T21:00:08.955Z,5.83
2023-04-06T21:03:13.194Z,6.50
2023-04-06T21:06:20.323Z,6.57
2023-04-06T21:09:22.850Z,6.63
2023-04-06T21:12:27.368Z,5.60
2023-04-06T21:15:29.348Z,5.60
2023-04-06T21:18:32.761Z,7.23
2023-04-06T21:21:35.532Z,6.53
2023-04-06T21:24:38.187Z,6.67
2023-04-06T21:27:40.381Z,5.17
2023-04-06T21:30:43.372Z,5.90
2023-04-06T21:33:45.792Z,5.70
2023-04-06T21:36:47.927Z,5.53
2023-04-06T21:39:49.915Z,5.83
2023-04-06T21:42:51.903Z,6.03
2023-04-06T21:45:53.845Z,5.50
2023-04-06T21:48:56.372Z,5.23
2023-04-06T21:51:58.315Z,5.20
2023-04-06T21:55:00.333Z,5.77
2023-04-06T21:58:02.302Z,5.57
2023-04-06T22:01:14.339Z,4.63
2023-04-06T22:04:16.565Z,5.13
2023-04-06T22:07:19.366Z,4.97
2023-04-06T22:10:21.856Z,5.50
2023-04-06T22:13:27.686Z,6.17
2023-04-06T22:16:29.631Z,6.87
2023-04-06T22:19:31.944Z,6.03
2023-04-06T22:22:33.884Z,5.47
2023-04-06T22:25:36.691Z,5.37
2023-04-06T22:28:45.150Z,4.90
2023-04-06T22:31:47.463Z,5.63
2023-04-06T22:34:50.039Z,5.03
2023-04-06T22:37:52.464Z,5.27
2023-04-06T22:40:54.823Z,5.40
2023-04-06T22:43:57.009Z,5.77
2023-04-06T22:46:59.064Z,5.10
2023-04-06T22:50:03.537Z,4.90
2023-04-06T22:53:05.636Z,5.53
2023-04-06T22:56:08.010Z,4.53
2023-04-06T22:59:09.988Z,4.80
2023-04-06T23:02:12.083Z,4.93
2023-04-06T23:05:14.455Z,5.63
2023-04-06T23:08:17.324Z,5.17
2023-04-06T23:11:19.227Z,5.67
2023-04-06T23:14:21.495Z,5.20
2023-04-06T23:17:23.416Z,5.03
2023-04-06T23:20:25.587Z,5.80
2023-04-06T23:23:27.811Z,6.27
2023-04-06T23:26:29.904Z,4.83
2023-04-06T23:29:32.311Z,5.23
2023-04-06T23:32:34.808Z,5.37
2023-04-06T23:35:37.053Z,5.20
2023-04-06T23:38:39.027Z,5.17
2023-04-06T23:41:40.997Z,4.37
2023-04-06T23:44:43.668Z,5.50
2023-04-06T23:47:46.191Z,5.37
2023-04-06T23:50:48.386Z,5.47
2023-04-06T23:53:50.332Z,4.87
2023-04-06T23:56:52.485Z,4.83
2023-04-06T23:59:54.458Z,5.10
